Time;durP1;ratioP1;P1;durP2;ratioP2;P2;SDS_P1;SDS_P2;PMS_P1;PMS_P2;Temp;Humidity;BMP_temperature;BMP_pressure;BME280_temperature;BME280_humidity;BME280_pressure;Samples;Min_cycle;Max_cycle;Signal;HPM_P1;HPM_P2
2021/06/29 00:00:44;;;;;;;7.72;4.45;;;18.50;99.90;;;;;;5066792;28;20036;-85
2021/06/29 00:03:11;;;;;;;11.38;4.78;;;18.50;99.90;;;;;;5046878;28;20048;-85
2021/06/29 00:05:38;;;;;;;7.30;5.55;;;18.50;99.90;;;;;;5066347;28;20378;-84
2021/06/29 00:08:07;;;;;;;9.23;5.68;;;18.50;99.90;;;;;;5064789;28;20575;-84
2021/06/29 00:10:36;;;;;;;9.60;4.95;;;19.90;99.90;;;;;;5068245;28;20417;-85
2021/06/29 00:13:05;;;;;;;10.60;5.22;;;18.60;99.90;;;;;;5056361;28;20465;-84
2021/06/29 00:15:33;;;;;;;9.30;5.38;;;18.60;99.90;;;;;;5050637;28;20547;-85
2021/06/29 00:18:00;;;;;;;6.95;5.07;;;18.60;99.90;;;;;;5065346;28;20044;-85
2021/06/29 00:20:28;;;;;;;7.00;4.53;;;18.50;99.90;;;;;;5035882;28;20109;-85
2021/06/29 00:22:55;;;;;;;10.65;4.90;;;18.50;99.90;;;;;;5057601;28;20110;-85
2021/06/29 00:25:22;;;;;;;8.05;5.47;;;18.50;99.90;;;;;;5046976;28;20521;-84
2021/06/29 00:27:50;;;;;;;10.07;4.88;;;18.50;99.90;;;;;;5067089;28;20591;-85
2021/06/29 00:30:17;;;;;;;8.85;5.53;;;18.40;99.90;;;;;;5068951;28;20614;-84
2021/06/29 00:32:44;;;;;;;13.23;5.40;;;18.30;99.90;;;;;;5075255;28;20040;-86
2021/06/29 00:35:12;;;;;;;7.65;5.40;;;18.30;99.90;;;;;;5072985;28;20048;-86
2021/06/29 00:37:39;;;;;;;12.77;5.15;;;18.40;99.90;;;;;;5056664;28;20041;-86
2021/06/29 00:40:08;;;;;;;6.78;5.13;;;18.40;99.90;;;;;;5071702;28;20040;-86
2021/06/29 00:42:36;;;;;;;6.63;4.82;;;18.40;99.90;;;;;;5073226;28;20048;-83
2021/06/29 00:45:06;;;;;;;10.07;5.03;;;18.50;99.90;;;;;;5070531;28;20559;-85
2021/06/29 00:47:33;;;;;;;8.68;4.90;;;18.50;99.90;;;;;;5056039;28;20048;-84
2021/06/29 00:49:59;;;;;;;11.65;5.18;;;18.60;99.90;;;;;;5056606;28;20066;-84
2021/06/29 00:52:27;;;;;;;10.93;5.45;;;18.50;99.90;;;;;;5057166;28;20049;-84
2021/06/29 00:54:54;;;;;;;7.25;5.03;;;18.60;99.90;;;;;;5057494;28;20070;-83
2021/06/29 00:57:21;;;;;;;13.88;5.60;;;18.60;99.90;;;;;;5056188;28;20057;-84
2021/06/29 00:59:48;;;;;;;7.57;5.07;;;18.50;99.90;;;;;;5069620;28;20041;-85
2021/06/29 01:02:16;;;;;;;8.82;5.30;;;18.50;99.90;;;;;;5065050;28;20036;-85
2021/06/29 01:04:43;;;;;;;9.45;5.28;;;18.50;99.90;;;;;;5076276;28;20074;-84
2021/06/29 01:07:11;;;;;;;6.97;5.13;;;18.60;99.90;;;;;;5074997;28;20086;-84
2021/06/29 01:09:39;;;;;;;12.00;5.78;;;18.60;99.90;;;;;;5055644;28;20067;-85
2021/06/29 01:12:07;;;;;;;9.73;5.50;;;18.40;99.90;;;;;;5070731;28;20448;-85
2021/06/29 01:14:34;;;;;;;9.95;5.22;;;18.40;99.90;;;;;;5067591;28;20079;-84
2021/06/29 01:17:04;;;;;;;9.60;5.50;;;18.40;99.90;;;;;;5064904;28;20053;-84
2021/06/29 01:19:46;;;;;;;10.45;6.57;;;18.50;99.90;;;;;;5073511;28;20052;-85
2021/06/29 01:22:15;;;;;;;13.25;5.40;;;18.40;99.90;;;;;;5056227;28;20386;-85
2021/06/29 01:24:46;;;;;;;10.30;6.00;;;18.50;99.90;;;;;;5047715;28;20052;-85
2021/06/29 01:27:30;;;;;;;16.48;6.28;;;18.50;99.90;;;;;;5057062;28;20567;-85
2021/06/29 01:32:25;;;;;;;11.00;5.20;;;18.50;99.90;;;;;;5067878;28;20052;-83
2021/06/29 01:34:52;;;;;;;14.10;5.68;;;18.50;99.90;;;;;;5078030;28;20562;-84
2021/06/29 01:37:21;;;;;;;11.43;5.70;;;18.60;99.90;;;;;;5055963;28;20044;-85
2021/06/29 01:39:59;;;;;;;12.70;5.32;;;18.60;99.90;;;;;;5054372;28;20105;-85
2021/06/29 01:42:26;;;;;;;13.35;5.18;;;18.70;99.90;;;;;;5049980;28;20048;-85
2021/06/29 01:44:52;;;;;;;9.18;4.90;;;18.70;99.90;;;;;;5071383;28;20040;-84
2021/06/29 01:47:26;;;;;;;8.90;5.55;;;18.70;99.90;;;;;;5052790;28;20041;-85
2021/06/29 01:49:53;;;;;;;7.70;5.22;;;18.80;99.90;;;;;;5056291;28;20052;-84
2021/06/29 01:52:21;;;;;;;12.48;5.72;;;18.80;99.90;;;;;;5057248;28;20082;-85
2021/06/29 01:54:48;;;;;;;8.75;5.30;;;18.80;99.90;;;;;;5048308;28;20071;-86
2021/06/29 01:57:15;;;;;;;10.02;5.25;;;18.70;99.90;;;;;;5053456;28;20045;-84
2021/06/29 01:59:45;;;;;;;9.75;5.53;;;18.80;99.90;;;;;;5054643;28;20052;-84
2021/06/29 02:02:12;;;;;;;10.05;6.05;;;18.80;99.90;;;;;;5049805;28;20036;-84
2021/06/29 02:04:39;;;;;;;15.65;6.68;;;18.60;99.90;;;;;;5048675;28;20048;-85
2021/06/29 02:07:06;;;;;;;12.65;6.07;;;18.50;99.90;;;;;;5053570;28;20101;-84
2021/06/29 02:09:34;;;;;;;9.77;6.00;;;18.50;99.90;;;;;;5071979;28;20040;-84
2021/06/29 02:12:01;;;;;;;10.80;5.97;;;18.50;99.90;;;;;;5037461;28;20040;-84
2021/06/29 02:14:28;;;;;;;11.93;6.45;;;18.60;99.90;;;;;;5045405;28;20048;-83
2021/06/29 02:16:55;;;;;;;15.35;5.82;;;18.60;99.90;;;;;;5048087;28;20053;-85
2021/06/29 02:19:22;;;;;;;12.50;6.05;;;18.60;99.90;;;;;;5054149;28;20056;-85
2021/06/29 02:24:19;;;;;;;11.45;5.60;;;18.50;99.90;;;;;;5079884;28;20056;-83
2021/06/29 02:26:47;;;;;;;11.38;6.35;;;18.60;99.90;;;;;;5065901;28;20048;-83
2021/06/29 02:29:14;;;;;;;12.32;6.47;;;18.50;99.90;;;;;;5063114;28;20106;-84
2021/06/29 02:31:41;;;;;;;13.77;6.15;;;19.40;99.90;;;;;;5062577;28;20559;-83
2021/06/29 02:34:08;;;;;;;15.38;6.55;;;18.40;99.90;;;;;;5059545;28;20555;-85
2021/06/29 02:36:34;;;;;;;10.38;6.25;;;18.40;99.90;;;;;;5063232;28;20440;-82
2021/06/29 02:39:02;;;;;;;11.10;6.15;;;18.40;99.90;;;;;;5055450;28;20044;-84
2021/06/29 02:41:28;;;;;;;15.18;5.78;;;18.50;99.90;;;;;;5058801;28;20045;-84
2021/06/29 02:43:57;;;;;;;8.07;5.47;;;18.60;99.90;;;;;;5063974;28;20048;-85
2021/06/29 02:46:24;;;;;;;7.07;4.85;;;18.60;99.90;;;;;;5055019;28;20052;-82
2021/06/29 02:48:55;;;;;;;10.73;5.55;;;18.70;99.90;;;;;;5059331;28;20040;-84
2021/06/29 02:51:22;;;;;;;8.38;5.50;;;18.70;99.90;;;;;;5062670;28;20052;-84
2021/06/29 02:53:49;;;;;;;11.05;5.75;;;18.70;99.90;;;;;;5060935;28;20044;-84
2021/06/29 02:59:09;;;;;;;14.18;6.10;;;18.90;99.90;;;;;;5075583;28;20067;-84
2021/06/29 03:01:36;;;;;;;7.70;5.53;;;18.80;99.90;;;;;;5055907;28;20037;-83
2021/06/29 03:04:03;;;;;;;11.90;5.75;;;18.90;99.90;;;;;;5062670;28;20098;-82
2021/06/29 03:06:31;;;;;;;9.00;5.15;;;18.80;99.90;;;;;;5060965;28;20048;-83
2021/06/29 03:08:58;;;;;;;11.38;5.05;;;18.90;99.90;;;;;;5061762;28;20067;-83
2021/06/29 03:11:25;;;;;;;12.43;6.13;;;18.90;99.90;;;;;;5053354;28;20051;-84
2021/06/29 03:13:52;;;;;;;10.48;5.82;;;18.80;99.90;;;;;;5060465;28;20509;-84
2021/06/29 03:16:20;;;;;;;10.77;5.47;;;18.90;99.90;;;;;;5061869;28;20051;-84
2021/06/29 03:18:48;;;;;;;8.73;5.47;;;18.80;99.90;;;;;;5054318;28;20045;-84
2021/06/29 03:21:15;;;;;;;9.13;5.38;;;18.90;99.90;;;;;;5059127;28;20059;-84
2021/06/29 03:23:42;;;;;;;9.93;5.30;;;18.80;99.90;;;;;;5058765;28;20053;-82
2021/06/29 03:26:09;;;;;;;8.70;5.40;;;18.80;99.90;;;;;;5061285;28;20520;-84
2021/06/29 03:28:36;;;;;;;9.60;5.88;;;18.80;99.90;;;;;;5059571;28;20418;-85
2021/06/29 03:31:03;;;;;;;10.60;6.10;;;18.80;99.90;;;;;;5056718;28;20055;-80
2021/06/29 03:33:32;;;;;;;8.07;5.57;;;18.80;99.90;;;;;;5059739;28;20071;-82
2021/06/29 03:35:59;;;;;;;8.30;5.60;;;18.80;99.90;;;;;;5054761;28;20055;-83
2021/06/29 03:38:26;;;;;;;7.47;5.50;;;18.80;99.90;;;;;;5053931;28;20053;-84
2021/06/29 03:40:53;;;;;;;12.48;6.03;;;18.80;99.90;;;;;;5047686;28;20150;-83
2021/06/29 03:43:20;;;;;;;11.65;6.35;;;18.80;99.90;;;;;;5057129;28;20044;-84
2021/06/29 03:45:46;;;;;;;7.85;5.78;;;18.80;99.90;;;;;;5056835;28;20045;-84
2021/06/29 03:48:13;;;;;;;12.50;6.70;;;18.80;99.90;;;;;;5058394;28;20044;-83
2021/06/29 03:50:42;;;;;;;9.18;6.80;;;18.80;99.90;;;;;;5050528;28;20098;-84
2021/06/29 03:53:08;;;;;;;7.30;6.22;;;18.80;99.90;;;;;;5055778;28;20040;-83
2021/06/29 03:55:35;;;;;;;9.63;7.15;;;18.90;99.90;;;;;;5057044;28;20468;-84
2021/06/29 03:58:03;;;;;;;8.45;6.30;;;18.90;99.90;;;;;;5058700;28;20060;-82
2021/06/29 04:00:30;;;;;;;12.75;6.68;;;18.80;99.90;;;;;;5052232;28;20098;-85
2021/06/29 04:02:56;;;;;;;12.60;7.07;;;18.90;99.90;;;;;;5052317;28;20043;-80
2021/06/29 04:05:24;;;;;;;9.48;7.18;;;18.90;99.90;;;;;;5055938;28;20506;-84
2021/06/29 04:07:52;;;;;;;10.95;7.93;;;18.90;99.90;;;;;;5059527;28;20055;-84
2021/06/29 04:10:19;;;;;;;13.43;8.02;;;18.90;99.90;;;;;;5051009;28;20110;-84
2021/06/29 04:12:46;;;;;;;11.13;7.30;;;18.90;99.90;;;;;;5058873;28;20819;-84
2021/06/29 04:15:13;;;;;;;10.85;7.60;;;18.90;99.90;;;;;;5054082;28;20121;-83
2021/06/29 04:17:40;;;;;;;12.45;7.35;;;19.00;99.90;;;;;;5074052;28;20049;-82
2021/06/29 04:20:09;;;;;;;9.07;6.65;;;19.00;99.90;;;;;;5054721;28;20091;-84
2021/06/29 04:22:36;;;;;;;12.93;6.57;;;19.10;99.90;;;;;;5052978;28;20095;-83
2021/06/29 04:25:07;;;;;;;7.40;5.75;;;19.20;99.90;;;;;;5051775;28;20052;-84
2021/06/29 04:27:34;;;;;;;7.78;5.15;;;19.20;99.90;;;;;;5048992;28;20045;-85
2021/06/29 04:30:01;;;;;;;8.00;5.47;;;19.20;99.90;;;;;;5056619;28;20487;-84
2021/06/29 04:32:27;;;;;;;9.95;6.07;;;19.30;99.90;;;;;;5069305;28;20037;-85
2021/06/29 04:34:54;;;;;;;7.15;5.38;;;19.30;99.90;;;;;;5055007;28;20052;-80
2021/06/29 04:37:21;;;;;;;9.05;5.13;;;19.30;99.90;;;;;;5054362;28;20036;-84
2021/06/29 04:39:48;;;;;;;7.93;4.88;;;21.10;99.90;;;;;;5052881;28;20049;-80
2021/06/29 04:42:16;;;;;;;7.97;4.63;;;19.40;99.90;;;;;;5052679;28;20044;-83
2021/06/29 04:44:43;;;;;;;5.68;4.10;;;19.40;99.90;;;;;;5048154;28;20093;-84
2021/06/29 04:47:10;;;;;;;6.72;4.35;;;19.40;99.90;;;;;;5053958;28;20033;-83
2021/06/29 04:49:37;;;;;;;7.57;4.10;;;19.50;99.90;;;;;;5054676;28;20033;-84
2021/06/29 04:52:04;;;;;;;9.15;4.18;;;19.40;99.90;;;;;;5052578;28;20040;-84
2021/06/29 04:54:31;;;;;;;5.80;4.10;;;19.50;99.90;;;;;;5048990;28;20143;-82
2021/06/29 04:56:58;;;;;;;5.32;3.80;;;19.60;99.90;;;;;;5047378;28;20040;-84
2021/06/29 04:59:26;;;;;;;6.07;4.20;;;19.60;99.90;;;;;;5056989;28;20041;-84
2021/06/29 05:01:53;;;;;;;7.07;4.30;;;19.60;99.90;;;;;;5047761;28;20097;-83
2021/06/29 05:04:20;;;;;;;5.93;4.07;;;19.60;99.90;;;;;;5052950;28;20110;-83
2021/06/29 05:06:47;;;;;;;6.75;3.88;;;19.60;99.90;;;;;;5049124;28;20040;-84
2021/06/29 05:09:14;;;;;;;6.63;4.10;;;19.60;99.90;;;;;;5052913;28;20057;-84
2021/06/29 05:11:41;;;;;;;5.00;3.78;;;19.60;99.90;;;;;;5057092;28;20048;-83
2021/06/29 05:14:08;;;;;;;5.20;4.10;;;19.60;99.90;;;;;;5050225;28;20417;-84
2021/06/29 05:16:36;;;;;;;6.55;4.43;;;19.70;99.90;;;;;;5055797;28;20064;-82
2021/06/29 05:19:03;;;;;;;6.38;4.03;;;19.70;99.90;;;;;;5056316;28;20551;-84
2021/06/29 05:21:30;;;;;;;5.32;4.10;;;19.70;99.90;;;;;;5060430;28;20060;-84
2021/06/29 05:24:00;;;;;;;6.47;4.18;;;19.80;99.90;;;;;;5049234;28;20055;-84
2021/06/29 05:26:27;;;;;;;7.18;4.68;;;19.80;99.90;;;;;;5058065;28;20044;-84
2021/06/29 05:28:54;;;;;;;6.40;4.82;;;20.40;99.90;;;;;;5055422;28;20190;-84
2021/06/29 05:31:21;;;;;;;11.50;5.05;;;20.00;99.90;;;;;;5053191;28;20110;-83
2021/06/29 05:33:50;;;;;;;5.40;4.32;;;20.00;99.90;;;;;;5048416;28;20059;-83
2021/06/29 05:36:16;;;;;;;6.28;4.55;;;19.90;99.90;;;;;;5054369;28;20095;-84
2021/06/29 05:38:43;;;;;;;6.55;4.55;;;19.90;99.90;;;;;;5047131;28;20060;-83
2021/06/29 05:41:10;;;;;;;9.90;5.10;;;19.90;99.90;;;;;;5048515;28;20459;-83
2021/06/29 05:43:37;;;;;;;5.88;4.50;;;19.80;99.90;;;;;;5038767;28;20040;-83
2021/06/29 05:46:04;;;;;;;10.10;5.20;;;19.90;99.90;;;;;;5053887;28;20170;-83
2021/06/29 05:48:33;;;;;;;9.10;5.50;;;20.10;99.90;;;;;;5052406;28;20049;-83
2021/06/29 05:51:03;;;;;;;10.20;5.05;;;20.10;99.90;;;;;;5057678;28;20049;-82
2021/06/29 05:53:30;;;;;;;9.30;4.73;;;20.10;99.90;;;;;;5055189;28;20056;-83
2021/06/29 05:55:57;;;;;;;8.95;5.28;;;20.30;99.90;;;;;;5070629;28;20282;-83
2021/06/29 05:58:25;;;;;;;6.30;4.30;;;20.10;99.90;;;;;;5056049;28;20090;-84
2021/06/29 06:00:52;;;;;;;6.43;4.20;;;20.10;99.90;;;;;;5052974;28;20040;-83
2021/06/29 06:03:20;;;;;;;6.68;4.00;;;20.10;99.90;;;;;;5055371;28;20460;-84
2021/06/29 06:05:47;;;;;;;5.63;3.65;;;20.00;99.90;;;;;;5063191;28;21837;-82
2021/06/29 06:08:15;;;;;;;4.35;3.28;;;20.00;99.90;;;;;;5041411;28;20044;-83
2021/06/29 06:10:43;;;;;;;4.60;3.50;;;20.00;99.90;;;;;;5045930;28;20111;-83
2021/06/29 06:13:09;;;;;;;4.20;3.40;;;20.00;99.90;;;;;;5044577;28;20048;-83
2021/06/29 06:15:37;;;;;;;6.53;3.28;;;20.10;99.90;;;;;;5051562;28;20043;-83
2021/06/29 06:18:05;;;;;;;5.38;3.28;;;20.20;99.90;;;;;;5041101;28;20044;-84
2021/06/29 06:20:33;;;;;;;4.57;3.00;;;20.20;99.90;;;;;;5052632;28;20044;-83
2021/06/29 06:23:00;;;;;;;4.72;3.10;;;20.30;99.90;;;;;;5052900;28;20048;-83
2021/06/29 06:25:28;;;;;;;5.70;3.50;;;20.40;99.90;;;;;;5054814;28;20040;-82
2021/06/29 06:27:55;;;;;;;5.53;3.70;;;20.40;99.90;;;;;;5053001;28;20467;-83
2021/06/29 06:30:23;;;;;;;5.22;3.50;;;20.30;99.90;;;;;;5043540;28;20090;-83
2021/06/29 06:32:49;;;;;;;5.75;3.42;;;20.10;99.90;;;;;;5051440;28;20068;-83
2021/06/29 06:35:17;;;;;;;6.22;3.78;;;20.10;99.90;;;;;;5043140;28;20052;-83
2021/06/29 06:37:44;;;;;;;4.28;3.47;;;20.00;99.90;;;;;;5048596;28;20101;-82
2021/06/29 06:40:12;;;;;;;7.05;3.92;;;20.00;99.90;;;;;;5066163;28;20052;-83
2021/06/29 06:42:41;;;;;;;6.32;3.65;;;20.10;99.90;;;;;;5054559;28;20098;-83
2021/06/29 06:45:09;;;;;;;6.63;3.67;;;20.20;99.90;;;;;;5054224;28;20056;-83
2021/06/29 06:47:37;;;;;;;7.68;3.50;;;20.30;99.90;;;;;;5070587;28;20057;-82
2021/06/29 06:50:05;;;;;;;4.68;3.03;;;20.40;99.90;;;;;;5053367;28;20075;-83
2021/06/29 06:52:35;;;;;;;3.90;3.10;;;20.40;99.90;;;;;;5054670;28;20040;-83
2021/06/29 06:55:02;;;;;;;5.68;3.33;;;20.50;99.90;;;;;;5054604;28;20040;-83
2021/06/29 06:57:29;;;;;;;3.75;2.97;;;20.60;99.90;;;;;;5050480;28;20045;-82
2021/06/29 06:59:57;;;;;;;6.25;3.10;;;21.30;99.90;;;;;;5054173;28;20052;-84
2021/06/29 07:02:24;;;;;;;4.32;2.63;;;20.60;99.90;;;;;;5045890;28;20875;-83
2021/06/29 07:04:51;;;;;;;4.32;2.92;;;20.50;99.90;;;;;;5050081;28;20041;-81
2021/06/29 07:07:18;;;;;;;4.55;3.50;;;20.50;99.90;;;;;;5036720;28;20048;-84
2021/06/29 07:09:45;;;;;;;5.50;3.20;;;20.50;99.90;;;;;;5054197;28;20044;-82
2021/06/29 07:12:12;;;;;;;5.35;2.92;;;20.50;99.90;;;;;;5051920;28;20436;-82
2021/06/29 07:14:39;;;;;;;4.80;3.33;;;20.40;99.90;;;;;;5051627;28;20053;-84
2021/06/29 07:17:07;;;;;;;4.28;3.50;;;20.50;99.90;;;;;;5044017;28;20044;-82
2021/06/29 07:19:34;;;;;;;7.43;3.50;;;21.40;99.90;;;;;;5050284;28;20569;-83
2021/06/29 07:22:01;;;;;;;5.88;3.40;;;20.50;99.90;;;;;;5053129;28;20452;-83
2021/06/29 07:24:28;;;;;;;5.80;3.92;;;20.70;99.90;;;;;;5052235;28;20502;-84
2021/06/29 07:26:54;;;;;;;10.02;3.90;;;20.70;99.90;;;;;;5051111;28;20048;-82
2021/06/29 07:29:21;;;;;;;4.28;3.13;;;20.80;99.90;;;;;;5044923;28;20060;-82
2021/06/29 07:31:48;;;;;;;6.72;4.13;;;21.00;99.90;;;;;;5047404;28;20110;-83
2021/06/29 07:34:17;;;;;;;5.68;3.22;;;21.20;99.90;;;;;;5050380;28;20032;-82
2021/06/29 07:36:44;;;;;;;6.80;3.38;;;22.40;99.90;;;;;;5050263;28;20056;-82
2021/06/29 07:39:11;;;;;;;4.35;2.70;;;21.40;99.90;;;;;;5044499;28;20068;-83
2021/06/29 07:41:38;;;;;;;5.68;3.10;;;21.50;99.90;;;;;;5043135;28;20049;-83
2021/06/29 07:44:05;;;;;;;7.28;3.45;;;21.60;99.90;;;;;;5047667;28;20037;-81
2021/06/29 07:46:32;;;;;;;5.20;3.20;;;21.80;99.90;;;;;;5041980;28;20053;-79
2021/06/29 07:48:59;;;;;;;5.38;3.72;;;22.00;99.90;;;;;;5050053;28;20468;-84
2021/06/29 07:51:27;;;;;;;4.22;3.03;;;22.10;99.90;;;;;;5051133;28;20578;-83
2021/06/29 07:53:54;;;;;;;6.90;3.33;;;22.20;99.90;;;;;;5053288;28;20053;-85
2021/06/29 07:56:21;;;;;;;6.80;2.90;;;22.20;99.90;;;;;;5049880;28;20098;-85
2021/06/29 07:58:48;;;;;;;4.07;2.90;;;22.10;99.90;;;;;;5050282;28;20094;-84
2021/06/29 08:01:16;;;;;;;7.05;3.40;;;22.10;99.90;;;;;;5045654;28;20095;-83
2021/06/29 08:03:44;;;;;;;4.65;2.90;;;22.00;99.90;;;;;;5048306;28;20462;-84
2021/06/29 08:06:12;;;;;;;6.20;2.90;;;22.00;99.90;;;;;;5067024;28;20470;-84
2021/06/29 08:08:41;;;;;;;3.88;2.20;;;22.10;99.90;;;;;;5047855;28;20059;-83
2021/06/29 08:11:09;;;;;;;4.60;2.28;;;22.10;99.90;;;;;;5042239;28;20048;-84
2021/06/29 08:13:38;;;;;;;2.85;2.00;;;22.10;99.90;;;;;;5040842;28;20083;-83
2021/06/29 08:16:08;;;;;;;5.07;2.60;;;21.80;99.90;;;;;;5050932;28;20072;-83
2021/06/29 08:18:36;;;;;;;5.40;2.38;;;21.80;99.90;;;;;;5049114;28;20413;-81
2021/06/29 08:21:03;;;;;;;4.70;2.28;;;21.80;99.90;;;;;;5054952;28;20452;-83
2021/06/29 08:23:32;;;;;;;5.30;2.60;;;21.90;99.90;;;;;;5084476;23;20045;-85
2021/06/29 08:26:00;;;;;;;6.28;3.00;;;21.90;99.90;;;;;;5065667;28;20036;-84
2021/06/29 08:28:27;;;;;;;4.68;2.80;;;22.00;99.90;;;;;;5051180;28;20469;-84
2021/06/29 08:30:54;;;;;;;4.28;2.80;;;22.00;99.90;;;;;;5070087;28;20052;-86
2021/06/29 08:33:22;;;;;;;7.35;2.95;;;22.00;99.90;;;;;;5058852;28;20045;-85
2021/06/29 08:35:50;;;;;;;5.28;2.55;;;22.00;99.90;;;;;;5059434;28;20072;-86
2021/06/29 08:38:18;;;;;;;6.72;2.78;;;22.10;99.90;;;;;;5054494;28;20044;-85
2021/06/29 08:40:45;;;;;;;4.15;2.67;;;22.10;99.90;;;;;;5070306;28;20048;-85
2021/06/29 08:43:14;;;;;;;3.67;2.33;;;22.20;99.90;;;;;;5079041;28;20040;-84
2021/06/29 08:45:41;;;;;;;7.07;2.50;;;22.20;99.90;;;;;;5061944;28;20040;-86
2021/06/29 08:50:39;;;;;;;4.72;2.17;;;22.50;99.90;;;;;;5037270;28;20049;-88
2021/06/29 08:53:10;;;;;;;3.22;2.13;;;22.70;99.90;;;;;;5033685;28;20494;-87
2021/06/29 08:55:43;;;;;;;5.70;2.00;;;23.30;99.90;;;;;;5014678;28;20045;-87
2021/06/29 08:58:14;;;;;;;3.75;1.95;;;24.90;99.90;;;;;;5047843;28;20049;-86
2021/06/29 09:00:42;;;;;;;4.95;2.22;;;23.50;99.90;;;;;;5045978;28;20038;-86
2021/06/29 09:03:10;;;;;;;5.75;1.88;;;23.70;99.90;;;;;;5028609;28;20038;-86
2021/06/29 09:05:42;;;;;;;3.97;2.13;;;24.00;99.90;;;;;;5036557;28;20530;-87
2021/06/29 09:08:13;;;;;;;3.17;1.70;;;25.90;99.90;;;;;;5032128;28;20064;-86
2021/06/29 09:10:41;;;;;;;;;;;24.40;99.90;;;;;;5048502;28;20500;-88
2021/06/29 09:13:09;;;;;;;5.10;2.15;;;24.60;99.90;;;;;;5049997;28;20838;-88
2021/06/29 09:15:39;;;;;;;4.10;1.90;;;24.60;99.90;;;;;;5032191;28;20045;-88
2021/06/29 09:18:20;;;;;;;3.67;2.10;;;26.70;99.90;;;;;;5026457;28;20041;-88
2021/06/29 09:20:54;;;;;;;4.32;2.15;;;25.10;99.90;;;;;;5028652;28;20050;-87
2021/06/29 09:23:31;;;;;;;5.47;2.35;;;25.10;99.90;;;;;;5031506;28;20503;-85
2021/06/29 09:26:00;;;;;;;3.83;1.70;;;25.00;99.90;;;;;;5031088;28;20041;-85
2021/06/29 09:28:35;;;;;;;4.50;2.20;;;25.20;99.90;;;;;;5031637;28;20124;-86
2021/06/29 09:31:05;;;;;;;5.50;2.45;;;24.70;99.90;;;;;;5041606;28;20064;-85
2021/06/29 09:33:38;;;;;;;4.63;2.30;;;26.70;99.90;;;;;;5042672;28;20042;-85
2021/06/29 09:36:07;;;;;;;7.00;2.10;;;24.10;99.90;;;;;;5036396;28;20432;-86
2021/06/29 09:38:37;;;;;;;4.07;2.20;;;24.90;99.90;;;;;;5045792;28;20492;-86
2021/06/29 09:41:04;;;;;;;;;;;26.60;99.90;;;;;;5034299;28;20091;-84
2021/06/29 09:43:36;;;;;;;3.30;2.17;;;25.50;99.90;;;;;;5034345;28;19996;-85
2021/06/29 09:46:05;;;;;;;3.80;1.90;;;25.00;99.90;;;;;;5049504;28;20092;-86
2021/06/29 09:48:42;;;;;;;3.15;2.08;;;25.40;99.90;;;;;;5046786;28;20053;-87
2021/06/29 09:51:18;;;;;;;3.53;2.30;;;25.40;99.90;;;;;;5024946;28;20037;-84
2021/06/29 09:53:47;;;;;;;3.95;2.65;;;25.40;99.90;;;;;;5050106;28;20045;-86
2021/06/29 09:56:19;;;;;;;4.80;2.78;;;27.80;99.90;;;;;;5049519;28;20170;-86
2021/06/29 09:58:50;;;;;;;5.07;2.60;;;27.10;99.90;;;;;;5032808;28;20049;-83
2021/06/29 10:01:19;;;;;;;4.45;2.97;;;25.80;99.90;;;;;;5033345;28;20488;-87
2021/06/29 10:03:52;;;;;;;4.97;3.13;;;28.10;99.90;;;;;;5044093;28;20037;-86
2021/06/29 10:06:21;;;;;;;7.38;3.45;;;26.00;99.90;;;;;;5049619;28;20045;-87
2021/06/29 10:08:49;;;;;;;4.20;3.20;;;27.00;99.90;;;;;;5032219;28;20057;-87
2021/06/29 10:11:19;;;;;;;6.50;3.25;;;26.30;99.90;;;;;;5034054;28;20700;-85
2021/06/29 10:13:55;;;;;;;4.65;3.47;;;26.40;99.90;;;;;;5048114;28;20037;-86
2021/06/29 10:16:24;;;;;;;5.95;3.00;;;26.30;99.90;;;;;;5043628;28;20052;-85
2021/06/29 10:21:27;;;;;;;4.35;3.08;;;26.30;99.90;;;;;;5023081;28;20049;-86
2021/06/29 10:23:55;;;;;;;5.32;3.30;;;27.40;99.90;;;;;;5040137;28;20488;-85
2021/06/29 10:26:25;;;;;;;5.22;3.13;;;27.70;99.90;;;;;;5037232;28;20072;-86
2021/06/29 10:28:53;;;;;;;4.43;3.00;;;26.20;99.90;;;;;;5028070;28;20057;-86
2021/06/29 10:31:22;;;;;;;4.10;3.10;;;26.10;99.90;;;;;;5030803;28;20045;-85
2021/06/29 10:33:50;;;;;;;;;;;26.20;99.90;;;;;;5049211;28;20623;-85
2021/06/29 10:36:20;;;;;;;3.90;2.83;;;26.00;99.90;;;;;;5027064;28;20380;-85
2021/06/29 10:38:47;;;;;;;4.28;3.10;;;26.20;99.90;;;;;;5046437;28;20056;-85
2021/06/29 10:41:15;;;;;;;5.50;3.05;;;26.40;99.90;;;;;;5030648;28;20049;-85
2021/06/29 10:43:43;;;;;;;6.03;3.00;;;26.40;99.90;;;;;;5048699;28;20061;-85
2021/06/29 10:46:35;;;;;;;5.20;3.25;;;26.70;99.90;;;;;;5030825;28;20049;-85
2021/06/29 10:49:33;;;;;;;5.30;3.10;;;26.80;99.90;;;;;;5042219;28;20111;-84
2021/06/29 10:52:05;;;;;;;6.40;2.70;;;27.00;99.90;;;;;;5039737;28;20057;-85
2021/06/29 10:54:46;;;;;;;4.28;2.55;;;26.70;99.90;;;;;;5016263;28;20042;-85
2021/06/29 10:57:17;;;;;;;4.20;2.70;;;27.40;99.90;;;;;;5005750;28;20042;-84
2021/06/29 10:59:46;;;;;;;4.70;2.85;;;26.80;99.90;;;;;;5023203;28;20096;-85
2021/06/29 11:02:29;;;;;;;4.75;2.72;;;26.60;99.90;;;;;;5014629;28;20059;-85
2021/06/29 11:04:59;;;;;;;3.42;2.78;;;27.70;99.90;;;;;;5024394;28;20067;-85
2021/06/29 11:07:38;;;;;;;4.47;2.88;;;26.20;99.90;;;;;;5024566;28;20049;-85
2021/06/29 11:10:09;;;;;;;5.38;3.30;;;26.20;99.90;;;;;;5029644;28;20512;-85
2021/06/29 11:12:39;;;;;;;3.88;2.50;;;26.10;99.90;;;;;;5039045;28;20104;-85
2021/06/29 11:15:09;;;;;;;5.28;2.97;;;26.20;99.90;;;;;;5045654;28;20093;-84
2021/06/29 11:17:53;;;;;;;9.65;3.50;;;26.20;99.90;;;;;;5024105;28;20056;-84
2021/06/29 11:20:22;;;;;;;7.63;3.38;;;28.40;99.90;;;;;;5028968;28;20512;-84
2021/06/29 11:22:56;;;;;;;4.65;3.35;;;26.20;99.90;;;;;;5046054;28;20038;-86
2021/06/29 11:25:34;;;;;;;4.82;2.95;;;26.10;99.90;;;;;;5047358;28;20053;-85
2021/06/29 11:28:25;;;;;;;6.32;3.80;;;26.30;99.90;;;;;;5017676;28;20058;-86
2021/06/29 11:31:07;;;;;;;5.18;3.85;;;25.90;99.90;;;;;;5042070;28;20072;-86
2021/06/29 11:33:49;;;;;;;5.45;3.60;;;25.50;99.90;;;;;;5026525;28;20049;-86
2021/06/29 11:36:46;;;;;;;4.40;3.67;;;25.50;99.90;;;;;;5022699;28;20050;-85
2021/06/29 11:39:34;;;;;;;4.65;3.47;;;25.30;99.90;;;;;;5036867;28;20045;-85
2021/06/29 11:42:09;;;;;;;5.25;3.45;;;25.40;99.90;;;;;;5042266;28;20499;-84
2021/06/29 11:44:45;;;;;;;4.40;3.10;;;25.60;99.90;;;;;;5029334;28;20044;-84
2021/06/29 11:47:15;;;;;;;6.75;4.55;;;25.80;99.90;;;;;;5035959;28;20709;-83
2021/06/29 11:49:46;;;;;;;11.25;4.72;;;25.90;99.90;;;;;;5041437;28;20084;-86
2021/06/29 11:52:34;;;;;;;6.15;4.80;;;25.90;99.90;;;;;;5040054;28;20068;-85
2021/06/29 11:55:12;;;;;;;6.88;3.90;;;25.90;99.90;;;;;;5038275;28;20044;-86
2021/06/29 11:57:44;;;;;;;6.25;3.90;;;26.20;99.90;;;;;;5038017;28;20125;-83
2021/06/29 12:00:24;;;;;;;6.00;3.40;;;26.60;99.90;;;;;;5029059;28;20266;-85
2021/06/29 12:02:54;;;;;;;4.78;2.60;;;26.70;99.90;;;;;;5030581;28;20045;-86
2021/06/29 12:05:23;;;;;;;7.25;2.50;;;26.60;99.90;;;;;;5026234;28;20059;-84
2021/06/29 12:07:51;;;;;;;4.47;2.50;;;26.70;99.90;;;;;;5040465;28;20060;-85
2021/06/29 12:10:21;;;;;;;3.65;2.60;;;26.70;99.90;;;;;;5019779;28;20611;-85
2021/06/29 12:12:50;;;;;;;3.90;2.38;;;27.10;99.90;;;;;;5027910;28;20041;-85
2021/06/29 12:15:20;;;;;;;6.03;2.42;;;27.00;99.90;;;;;;5040994;28;20158;-85
2021/06/29 12:17:57;;;;;;;3.10;2.25;;;27.00;99.90;;;;;;5039825;28;20041;-85
2021/06/29 12:20:26;;;;;;;3.53;2.42;;;27.40;99.90;;;;;;5045526;28;20050;-84
2021/06/29 12:22:54;;;;;;;5.75;2.50;;;27.60;99.90;;;;;;5029955;28;20480;-87
2021/06/29 12:25:25;;;;;;;3.72;2.28;;;27.50;99.50;;;;;;5025130;28;20100;-84
2021/06/29 12:27:54;;;;;;;6.03;2.50;;;27.50;99.90;;;;;;5028187;28;20107;-85
2021/06/29 12:30:27;;;;;;;3.58;2.50;;;28.50;99.90;;;;;;5032725;28;20045;-83
2021/06/29 12:32:55;;;;;;;4.93;2.80;;;27.60;99.30;;;;;;5041997;28;20048;-83
2021/06/29 12:35:22;;;;;;;4.50;2.45;;;27.50;99.90;;;;;;5047790;28;20120;-84
2021/06/29 12:37:55;;;;;;;4.63;2.38;;;27.40;99.90;;;;;;5031791;28;20052;-85
2021/06/29 12:40:25;;;;;;;3.50;2.60;;;27.20;99.90;;;;;;5030980;28;20050;-85
2021/06/29 12:42:53;;;;;;;4.18;2.50;;;27.20;99.90;;;;;;5048503;28;20049;-84
2021/06/29 12:45:21;;;;;;;4.10;2.55;;;27.40;99.90;;;;;;5017783;28;20488;-85
2021/06/29 12:48:06;;;;;;;5.28;2.45;;;28.70;99.90;;;;;;5013650;28;20050;-82
2021/06/29 12:50:34;;;;;;;3.95;2.28;;;27.80;99.40;;;;;;5048184;28;20450;-84
2021/06/29 12:53:02;;;;;;;5.10;2.63;;;27.80;99.90;;;;;;5029375;28;20083;-85
2021/06/29 12:55:31;;;;;;;5.07;2.10;;;27.90;99.80;;;;;;5028417;28;20060;-84
2021/06/29 12:58:07;;;;;;;3.58;2.30;;;28.00;98.50;;;;;;5027860;28;20092;-85
2021/06/29 13:00:38;;;;;;;3.95;2.00;;;28.10;99.90;;;;;;5014956;28;20057;-86
2021/06/29 13:03:06;;;;;;;4.45;2.47;;;28.20;99.20;;;;;;5049701;28;20054;-85
2021/06/29 13:05:33;;;;;;;3.75;2.10;;;28.80;99.90;;;;;;5030581;28;20037;-85
2021/06/29 13:08:11;;;;;;;2.80;1.90;;;28.40;98.30;;;;;;5047630;28;20046;-85